Terminal Aerodrome Forecast
Issued by NWS

Home | Current Version | Previous Version | Text Only | Print | Product List | Glossary On
Versions: 1 2 3 4 5 6 7 8 9 10 11 12 13 14 15 16 17 18 19 20 21 22 23 24 25
000
FTUS41 KOKX 251700 RRA
TAFHPN
TAF
KHPN 251741Z 2518/2618 30012G19KT P6SM SCT050 SCT250
     FM252100 31009KT P6SM BKN080
     FM260500 VRB04KT P6SM BKN050
     FM261200 05008KT P6SM BKN030
      TEMPO 2613/2616 3SM -SN BR BKN015
     FM261600 05010G18KT 1SM -SN BR BKN007
      AMD NOT SKED=

USA.gov is the U.S. government's official web portal to all federal, state and local government web resources and services.